createdAt,value
2019-01-30T00:00:59.010Z,3.10
2019-01-30T00:03:40.603Z,3.10
2019-01-30T00:06:22.339Z,3.10
2019-01-30T00:09:03.092Z,3.10
2019-01-30T00:11:44.440Z,3.30
2019-01-30T00:14:25.134Z,3.30
2019-01-30T00:17:06.693Z,3.40
2019-01-30T00:19:48.235Z,3.40
2019-01-30T00:22:27.854Z,3.40
2019-01-30T00:25:16.371Z,3.40
2019-01-30T00:27:57.703Z,3.40
2019-01-30T00:30:39.993Z,3.50
2019-01-30T00:33:22.836Z,3.50
2019-01-30T00:36:11.418Z,3.50
2019-01-30T00:39:00.172Z,3.50
2019-01-30T00:41:41.167Z,3.50
2019-01-30T00:44:20.685Z,3.60
2019-01-30T00:53:29.842Z,3.60
2019-01-30T00:56:13.304Z,3.70
2019-01-30T00:58:56.719Z,3.60
2019-01-30T01:01:37.303Z,3.50
2019-01-30T01:04:18.877Z,3.30
2019-01-30T01:07:00.183Z,3.20
2019-01-30T01:09:41.157Z,3.20
2019-01-30T01:12:21.834Z,3.10
2019-01-30T01:15:02.993Z,3.00
2019-01-30T01:17:45.992Z,3.10
2019-01-30T01:20:26.794Z,3.10
2019-01-30T01:23:09.273Z,2.90
2019-01-30T01:25:51.178Z,2.90
2019-01-30T01:28:32.253Z,2.90
2019-01-30T01:31:13.906Z,3.00
2019-01-30T01:33:56.394Z,2.90
2019-01-30T01:36:37.168Z,2.90
2019-01-30T01:39:18.661Z,3.00
2019-01-30T01:42:02.506Z,3.00
2019-01-30T01:44:43.769Z,2.80
2019-01-30T01:47:25.204Z,2.80
2019-01-30T01:50:06.178Z,2.90
2019-01-30T01:52:55.182Z,3.00
2019-01-30T01:55:36.567Z,3.00
2019-01-30T01:58:20.560Z,3.10
2019-01-30T02:01:02.323Z,3.10
2019-01-30T02:03:46.349Z,3.10
2019-01-30T02:06:27.848Z,3.20
2019-01-30T02:09:09.954Z,3.20
2019-01-30T02:11:52.049Z,3.20
2019-01-30T02:14:34.617Z,3.20
2019-01-30T02:17:17.486Z,3.30
2019-01-30T02:19:59.962Z,3.40
2019-01-30T02:22:41.470Z,3.20
2019-01-30T02:25:23.738Z,3.10
2019-01-30T02:28:05.088Z,3.30
2019-01-30T02:30:47.773Z,3.30
2019-01-30T02:33:30.919Z,3.40
2019-01-30T02:36:17.097Z,3.40
2019-01-30T02:38:58.425Z,3.30
2019-01-30T02:41:45.970Z,3.10
2019-01-30T02:44:28.390Z,3.10
2019-01-30T02:47:10.115Z,2.80
2019-01-30T02:49:52.671Z,2.90
2019-01-30T02:52:35.712Z,2.90
2019-01-30T02:58:26.416Z,2.90
2019-01-30T03:01:07.479Z,2.90
2019-01-30T03:03:48.612Z,2.90
2019-01-30T03:06:33.108Z,2.80
2019-01-30T03:09:13.943Z,2.80
2019-01-30T03:11:55.141Z,2.40
2019-01-30T03:14:36.739Z,2.50
2019-01-30T03:17:19.140Z,2.50
2019-01-30T03:20:00.307Z,2.40
2019-01-30T03:22:40.213Z,2.30
2019-01-30T03:25:28.790Z,2.40
2019-01-30T03:28:10.077Z,2.50
2019-01-30T03:30:51.858Z,2.50
2019-01-30T03:33:33.112Z,2.50
2019-01-30T03:36:15.292Z,2.40
2019-01-30T03:38:44.869Z,2.40
2019-01-30T03:44:21.507Z,2.60
2019-01-30T03:47:02.185Z,2.60
2019-01-30T03:49:44.515Z,2.70
2019-01-30T03:52:26.875Z,2.60
2019-01-30T03:55:07.704Z,2.50
2019-01-30T03:57:48.454Z,2.60
2019-01-30T04:00:29.435Z,2.40
2019-01-30T04:03:12.113Z,2.40
2019-01-30T04:05:53.606Z,2.50
2019-01-30T04:08:35.090Z,2.50
2019-01-30T04:14:15.374Z,2.20
2019-01-30T04:16:56.685Z,2.20
2019-01-30T04:19:37.439Z,2.30
2019-01-30T04:22:19.100Z,2.30
2019-01-30T04:25:01.705Z,2.40
2019-01-30T04:27:42.729Z,2.40
2019-01-30T04:30:24.360Z,2.40
2019-01-30T04:33:05.170Z,2.60
2019-01-30T04:35:46.798Z,2.60
2019-01-30T04:38:29.121Z,2.60
2019-01-30T04:41:11.442Z,2.40
2019-01-30T04:43:53.014Z,2.30
2019-01-30T04:46:34.339Z,2.00
2019-01-30T04:49:16.667Z,2.10
2019-01-30T04:52:04.690Z,1.90
2019-01-30T04:54:46.964Z,1.90
2019-01-30T04:57:28.975Z,1.90
2019-01-30T05:00:10.842Z,1.70
2019-01-30T05:02:53.276Z,1.90
2019-01-30T05:05:34.065Z,2.00
2019-01-30T05:08:14.784Z,2.10
2019-01-30T05:10:55.909Z,2.10
2019-01-30T05:13:37.528Z,2.00
2019-01-30T05:16:20.981Z,2.00
2019-01-30T05:19:01.862Z,2.00
2019-01-30T05:21:43.632Z,2.00
2019-01-30T05:24:24.915Z,1.90
2019-01-30T05:27:07.238Z,2.10
2019-01-30T05:35:42.486Z,2.00
2019-01-30T05:38:25.924Z,2.10
2019-01-30T05:41:07.474Z,2.10
2019-01-30T05:43:50.999Z,2.10
2019-01-30T05:46:32.352Z,2.10
2019-01-30T05:49:13.864Z,2.10
2019-01-30T05:51:55.535Z,1.90
2019-01-30T05:54:36.417Z,1.70
2019-01-30T05:57:17.741Z,1.80
2019-01-30T05:59:58.415Z,2.00
2019-01-30T06:02:43.145Z,1.90
2019-01-30T06:05:27.438Z,1.70
2019-01-30T06:08:11.333Z,1.70
2019-01-30T06:10:53.724Z,1.60
2019-01-30T06:13:35.798Z,1.80
2019-01-30T06:16:16.747Z,1.70
2019-01-30T06:18:59.726Z,1.70
2019-01-30T06:21:41.761Z,1.60
2019-01-30T06:24:23.197Z,1.70
2019-01-30T06:30:00.847Z,1.80
2019-01-30T06:35:58.818Z,2.00
2019-01-30T06:38:41.440Z,1.80
2019-01-30T06:41:23.741Z,1.80
2019-01-30T06:44:05.095Z,1.60
2019-01-30T06:47:22.018Z,1.70
2019-01-30T06:50:02.760Z,1.60
2019-01-30T06:52:45.204Z,1.70
2019-01-30T06:55:30.789Z,1.60
2019-01-30T06:58:17.075Z,1.60
2019-01-30T07:00:57.738Z,1.60
2019-01-30T07:03:38.514Z,1.70
2019-01-30T07:06:20.201Z,1.70
2019-01-30T07:09:03.223Z,1.70
2019-01-30T07:11:46.074Z,1.60
2019-01-30T07:14:26.938Z,1.60
2019-01-30T07:19:50.294Z,1.70
2019-01-30T07:22:31.441Z,1.70
2019-01-30T07:28:22.889Z,2.00
2019-01-30T07:31:07.202Z,2.10
2019-01-30T07:33:50.027Z,2.20
2019-01-30T07:36:30.664Z,2.20
2019-01-30T07:39:19.636Z,2.30
2019-01-30T07:42:00.180Z,2.40
2019-01-30T07:44:50.248Z,2.40
2019-01-30T07:47:26.713Z,2.20
2019-01-30T07:49:56.149Z,2.30
2019-01-30T07:53:04.754Z,2.40
2019-01-30T07:55:45.630Z,2.30
2019-01-30T07:58:26.549Z,2.30
2019-01-30T08:01:07.923Z,2.40
2019-01-30T08:03:52.682Z,2.30
2019-01-30T08:06:33.943Z,2.30
2019-01-30T08:09:24.873Z,2.10
2019-01-30T08:12:05.973Z,2.20
2019-01-30T08:14:47.435Z,2.20
2019-01-30T08:17:28.694Z,2.20
2019-01-30T08:20:12.406Z,2.30
2019-01-30T08:22:58.418Z,2.40
2019-01-30T08:25:39.625Z,2.50
2019-01-30T08:28:21.227Z,2.60
2019-01-30T08:31:02.529Z,2.60
2019-01-30T08:33:44.023Z,2.70
2019-01-30T08:36:13.428Z,2.80
2019-01-30T08:39:01.914Z,3.10
2019-01-30T08:41:42.885Z,3.10
2019-01-30T08:44:26.003Z,3.20
2019-01-30T08:47:06.972Z,3.40
2019-01-30T08:49:48.920Z,3.50
2019-01-30T08:52:33.642Z,3.70
2019-01-30T08:55:14.461Z,3.70
2019-01-30T08:57:55.661Z,3.90
2019-01-30T09:00:37.129Z,3.90
2019-01-30T09:03:21.970Z,4.10
2019-01-30T09:06:06.411Z,4.20
2019-01-30T09:08:35.802Z,4.40
2019-01-30T09:11:05.524Z,4.60
2019-01-30T09:13:55.439Z,4.70
2019-01-30T09:16:36.273Z,4.60
2019-01-30T09:19:17.472Z,4.60
2019-01-30T09:21:59.281Z,4.70
2019-01-30T09:24:40.749Z,4.70
2019-01-30T09:27:24.393Z,4.80
2019-01-30T09:30:08.255Z,4.70
2019-01-30T09:32:50.037Z,4.80
2019-01-30T09:35:33.325Z,4.80
2019-01-30T09:38:16.297Z,4.80
2019-01-30T09:41:02.326Z,4.80
2019-01-30T09:43:46.175Z,4.80
2019-01-30T09:46:27.741Z,4.80
2019-01-30T09:52:34.073Z,4.70
2019-01-30T09:55:03.480Z,4.80
2019-01-30T09:57:51.954Z,4.70
2019-01-30T10:00:40.378Z,4.60
2019-01-30T10:03:36.013Z,4.70
2019-01-30T10:06:15.311Z,4.80
2019-01-30T10:08:56.055Z,4.90
2019-01-30T10:11:37.138Z,4.90
2019-01-30T10:14:17.757Z,4.90
2019-01-30T10:16:58.765Z,4.90
2019-01-30T10:19:41.811Z,4.90
2019-01-30T10:22:21.717Z,4.90
2019-01-30T10:25:02.367Z,4.90
2019-01-30T10:27:44.289Z,5.00
2019-01-30T10:30:16.512Z,5.10
2019-01-30T10:33:04.885Z,5.10
2019-01-30T10:35:46.216Z,5.20
2019-01-30T10:38:28.620Z,5.20
2019-01-30T10:41:10.058Z,5.10
2019-01-30T10:43:51.428Z,5.20
2019-01-30T10:46:32.354Z,5.10
2019-01-30T10:49:20.192Z,5.10
2019-01-30T10:52:01.371Z,5.10
2019-01-30T10:54:42.339Z,5.30
2019-01-30T10:57:25.676Z,5.30
2019-01-30T11:00:09.114Z,5.30
2019-01-30T11:02:50.631Z,5.30
2019-01-30T11:05:31.238Z,5.40
2019-01-30T11:08:12.621Z,5.50
2019-01-30T11:10:53.246Z,5.50
2019-01-30T11:13:34.010Z,5.50
2019-01-30T11:16:16.632Z,5.50
2019-01-30T11:18:58.297Z,5.50
2019-01-30T11:21:39.585Z,5.60
2019-01-30T11:24:20.211Z,5.60
2019-01-30T11:27:01.262Z,5.60
2019-01-30T11:29:42.241Z,5.50
2019-01-30T11:32:23.784Z,5.50
2019-01-30T11:35:04.413Z,5.50
2019-01-30T11:37:45.642Z,5.50
2019-01-30T11:40:26.994Z,5.60
2019-01-30T11:43:08.548Z,5.70
2019-01-30T11:46:08.590Z,5.70
2019-01-30T11:48:56.206Z,5.80
2019-01-30T11:51:33.633Z,5.70
2019-01-30T11:54:14.690Z,5.70
2019-01-30T11:56:55.703Z,5.60
2019-01-30T11:59:36.377Z,5.70
2019-01-30T12:02:23.234Z,5.60
2019-01-30T12:05:04.428Z,5.60
2019-01-30T12:07:45.830Z,5.70
2019-01-30T12:10:27.479Z,5.80
2019-01-30T12:12:56.980Z,5.70
2019-01-30T12:15:45.404Z,5.70
2019-01-30T12:18:34.272Z,5.70
2019-01-30T12:21:20.037Z,5.70
2019-01-30T12:24:00.912Z,5.80
2019-01-30T12:26:41.656Z,5.80
2019-01-30T12:29:23.832Z,5.80
2019-01-30T12:32:16.985Z,5.90
2019-01-30T12:34:58.091Z,5.90
2019-01-30T12:37:39.319Z,5.90
2019-01-30T12:40:19.481Z,5.90
2019-01-30T12:43:08.197Z,5.90
2019-01-30T12:45:50.277Z,6.00
2019-01-30T12:48:48.973Z,6.00
2019-01-30T12:51:29.969Z,6.00
2019-01-30T12:54:11.074Z,6.00
2019-01-30T12:56:51.890Z,6.10
2019-01-30T12:59:33.213Z,6.20
2019-01-30T13:02:02.754Z,6.40
2019-01-30T13:04:51.130Z,6.50
2019-01-30T13:07:31.845Z,6.50
2019-01-30T13:10:17.480Z,6.50
2019-01-30T13:12:58.640Z,6.50
2019-01-30T13:15:39.712Z,6.50
2019-01-30T13:18:20.448Z,6.50
2019-01-30T13:20:49.864Z,6.50
2019-01-30T13:26:24.885Z,6.50
2019-01-30T13:29:05.971Z,6.40
2019-01-30T13:31:48.752Z,6.40
2019-01-30T13:34:19.183Z,6.50
2019-01-30T13:37:08.175Z,6.60
2019-01-30T13:39:48.852Z,6.60
2019-01-30T13:42:29.507Z,6.50
2019-01-30T13:45:15.389Z,6.60
2019-01-30T13:47:44.719Z,6.60
2019-01-30T13:50:17.093Z,6.60
2019-01-30T13:53:01.692Z,6.60
2019-01-30T13:55:44.657Z,6.70
2019-01-30T13:58:25.675Z,6.70
2019-01-30T14:01:17.619Z,6.70
2019-01-30T14:03:44.500Z,6.70
2019-01-30T14:06:32.990Z,6.80
2019-01-30T14:12:00.315Z,6.80
2019-01-30T14:14:29.672Z,6.70
2019-01-30T14:17:18.157Z,6.60
2019-01-30T14:19:59.067Z,6.60
2019-01-30T14:22:39.707Z,6.60
2019-01-30T14:25:19.243Z,6.70
2019-01-30T14:28:27.060Z,6.70
2019-01-30T14:31:07.957Z,6.70
2019-01-30T14:33:49.220Z,6.70
2019-01-30T14:36:33.834Z,6.70
2019-01-30T14:39:02.808Z,6.60
2019-01-30T14:41:51.353Z,6.70
2019-01-30T14:44:32.849Z,6.70
2019-01-30T14:47:17.340Z,6.80
2019-01-30T14:49:58.829Z,6.70
2019-01-30T14:52:39.700Z,6.60
2019-01-30T15:01:27.206Z,6.60
2019-01-30T15:04:15.732Z,6.60
2019-01-30T15:06:57.463Z,6.60
2019-01-30T15:09:38.192Z,6.70
2019-01-30T15:12:25.026Z,6.60
2019-01-30T15:15:16.858Z,6.50
2019-01-30T15:17:57.880Z,6.40
2019-01-30T15:20:40.885Z,6.40
2019-01-30T15:23:22.331Z,6.40
2019-01-30T15:26:03.558Z,6.40
2019-01-30T15:28:44.803Z,6.40
2019-01-30T15:31:26.125Z,6.30
2019-01-30T15:34:09.850Z,6.30
2019-01-30T15:36:51.124Z,6.40
2019-01-30T15:39:34.425Z,6.30
2019-01-30T15:42:15.429Z,6.20
2019-01-30T15:44:56.083Z,6.20
2019-01-30T15:47:38.129Z,6.30
2019-01-30T15:50:20.261Z,6.30
2019-01-30T15:53:01.852Z,6.30
2019-01-30T15:55:42.906Z,6.30
2019-01-30T15:58:24.381Z,6.40
2019-01-30T16:01:05.961Z,6.40
2019-01-30T16:03:47.004Z,6.30
2019-01-30T16:06:27.719Z,6.20
2019-01-30T16:09:09.296Z,6.20
2019-01-30T16:11:50.523Z,6.10
2019-01-30T16:14:39.035Z,6.20
2019-01-30T16:17:20.335Z,6.10
2019-01-30T16:20:09.443Z,6.20
2019-01-30T16:22:50.295Z,6.10
2019-01-30T16:25:31.505Z,6.10
2019-01-30T16:28:15.051Z,6.10
2019-01-30T16:30:56.610Z,6.10
2019-01-30T16:33:37.568Z,6.10
2019-01-30T16:36:18.367Z,6.00
2019-01-30T16:38:59.068Z,5.90
2019-01-30T16:41:40.490Z,5.80
2019-01-30T16:44:26.022Z,5.70
2019-01-30T16:47:07.039Z,5.70
2019-01-30T16:49:47.731Z,5.70
2019-01-30T16:52:28.912Z,5.70
2019-01-30T16:55:10.323Z,5.60
2019-01-30T16:57:51.775Z,5.50
2019-01-30T17:00:46.539Z,5.60
2019-01-30T17:03:33.806Z,5.60
2019-01-30T17:06:14.658Z,5.50
2019-01-30T17:08:54.602Z,5.50
2019-01-30T17:11:43.383Z,5.50
2019-01-30T17:14:24.452Z,5.50
2019-01-30T17:17:05.605Z,5.40
2019-01-30T17:19:46.373Z,5.40
2019-01-30T17:22:27.852Z,5.40
2019-01-30T17:25:08.275Z,5.40
2019-01-30T17:27:58.864Z,5.50
2019-01-30T17:30:40.402Z,5.50
2019-01-30T17:33:22.028Z,5.50
2019-01-30T17:36:03.262Z,5.40
2019-01-30T17:38:43.955Z,5.50
2019-01-30T17:41:27.777Z,5.40
2019-01-30T17:44:08.732Z,5.40
2019-01-30T17:46:50.263Z,5.40
2019-01-30T17:49:38.001Z,5.40
2019-01-30T17:52:19.686Z,5.50
2019-01-30T17:55:01.283Z,5.50
2019-01-30T17:57:43.208Z,5.30
2019-01-30T18:00:28.463Z,5.20
2019-01-30T18:03:10.329Z,5.30
2019-01-30T18:05:53.022Z,5.40
2019-01-30T18:08:41.955Z,5.30
2019-01-30T18:11:24.557Z,5.20
2019-01-30T18:14:11.827Z,5.20
2019-01-30T18:16:53.047Z,5.20
2019-01-30T18:19:22.549Z,5.20
2019-01-30T18:28:29.273Z,5.10
2019-01-30T18:31:10.546Z,5.10
2019-01-30T18:33:53.787Z,5.10
2019-01-30T18:36:40.322Z,5.10
2019-01-30T18:39:12.370Z,5.20
2019-01-30T18:41:53.959Z,5.20
2019-01-30T18:44:35.052Z,5.20
2019-01-30T18:47:17.314Z,5.30
2019-01-30T18:49:58.545Z,5.20
2019-01-30T18:52:39.514Z,5.10
2019-01-30T18:55:09.196Z,5.10
2019-01-30T18:57:50.817Z,5.10
2019-01-30T19:00:32.187Z,5.10
2019-01-30T19:03:02.838Z,5.10
2019-01-30T19:05:54.976Z,5.10
2019-01-30T19:08:38.406Z,5.00
2019-01-30T19:11:20.520Z,5.00
2019-01-30T19:14:08.223Z,5.00
2019-01-30T19:16:50.751Z,5.10
2019-01-30T19:19:31.882Z,5.20
2019-01-30T19:22:13.522Z,5.30
2019-01-30T19:24:54.478Z,5.40
2019-01-30T19:27:35.923Z,5.40
2019-01-30T19:30:16.857Z,5.40
2019-01-30T19:32:57.605Z,5.40
2019-01-30T19:35:38.511Z,5.40
2019-01-30T19:38:19.871Z,5.50
2019-01-30T19:41:01.443Z,5.50
2019-01-30T19:43:44.337Z,5.40
2019-01-30T19:46:25.481Z,5.40
2019-01-30T19:49:06.353Z,5.30
2019-01-30T19:51:47.817Z,5.20
2019-01-30T19:54:28.521Z,5.10
2019-01-30T19:57:11.211Z,5.10
2019-01-30T19:59:52.071Z,5.10
2019-01-30T20:02:33.520Z,5.10
2019-01-30T20:05:14.528Z,5.10
2019-01-30T20:07:55.670Z,5.10
2019-01-30T20:10:36.926Z,5.10
2019-01-30T20:13:18.651Z,5.10
2019-01-30T20:15:59.486Z,5.00
2019-01-30T20:18:41.024Z,5.00
2019-01-30T20:21:22.267Z,5.00
2019-01-30T20:24:04.749Z,4.90
2019-01-30T20:26:45.889Z,5.00
2019-01-30T20:29:27.125Z,4.90
2019-01-30T20:32:09.697Z,4.90
2019-01-30T20:34:52.787Z,5.00
2019-01-30T20:37:26.255Z,5.00
2019-01-30T20:40:13.971Z,5.00
2019-01-30T20:42:55.293Z,4.80
2019-01-30T20:45:36.510Z,4.80
2019-01-30T20:48:20.973Z,4.90
2019-01-30T20:51:02.303Z,4.90
2019-01-30T20:53:43.600Z,4.80
2019-01-30T20:56:13.104Z,4.80
2019-01-30T20:59:01.579Z,4.70
2019-01-30T21:01:42.391Z,4.70
2019-01-30T21:04:25.112Z,4.70
2019-01-30T21:07:06.323Z,4.60
2019-01-30T21:09:47.618Z,4.60
2019-01-30T21:12:29.237Z,4.70
2019-01-30T21:15:10.677Z,4.70
2019-01-30T21:17:52.896Z,4.70
2019-01-30T21:20:34.184Z,4.60
2019-01-30T21:23:15.533Z,4.60
2019-01-30T21:25:57.029Z,4.60
2019-01-30T21:28:38.391Z,4.50
2019-01-30T21:31:19.489Z,4.60
2019-01-30T21:34:00.235Z,4.60
2019-01-30T21:36:40.873Z,4.60
2019-01-30T21:39:22.394Z,4.60
2019-01-30T21:42:03.822Z,4.50
2019-01-30T21:44:45.414Z,4.40
2019-01-30T21:47:27.470Z,4.30
2019-01-30T21:50:08.594Z,4.40
2019-01-30T21:52:50.916Z,4.30
2019-01-30T21:55:31.922Z,4.30
2019-01-30T21:58:13.221Z,4.30
2019-01-30T22:00:53.845Z,4.30
2019-01-30T22:03:42.442Z,4.30
2019-01-30T22:06:23.643Z,4.30
2019-01-30T22:09:04.695Z,4.30
2019-01-30T22:11:46.543Z,4.30
2019-01-30T22:14:28.037Z,4.30
2019-01-30T22:17:08.658Z,4.20
2019-01-30T22:19:50.116Z,4.20
2019-01-30T22:22:31.334Z,4.20
2019-01-30T22:25:19.951Z,4.30
2019-01-30T22:27:55.717Z,4.20
2019-01-30T22:30:36.869Z,4.30
2019-01-30T22:33:18.401Z,4.40
2019-01-30T22:35:59.726Z,4.50
2019-01-30T22:38:40.839Z,4.70
2019-01-30T22:41:21.922Z,4.70
2019-01-30T22:44:02.613Z,4.80
2019-01-30T22:46:43.253Z,5.00
2019-01-30T22:49:24.990Z,5.00
2019-01-30T22:52:06.715Z,5.00
2019-01-30T22:54:48.055Z,5.10
2019-01-30T22:57:28.729Z,5.00
2019-01-30T23:00:10.266Z,5.00
2019-01-30T23:02:51.131Z,4.80
2019-01-30T23:05:32.032Z,4.50
2019-01-30T23:08:22.665Z,4.20
2019-01-30T23:10:55.251Z,4.10
2019-01-30T23:13:36.149Z,4.10
2019-01-30T23:16:17.198Z,4.10
2019-01-30T23:18:57.946Z,4.00
2019-01-30T23:21:39.351Z,4.00
2019-01-30T23:24:20.749Z,4.10
2019-01-30T23:27:03.138Z,4.00
2019-01-30T23:29:44.229Z,4.00
2019-01-30T23:32:24.907Z,4.20
2019-01-30T23:35:06.200Z,4.10
2019-01-30T23:37:46.919Z,4.10
2019-01-30T23:40:28.309Z,4.10
2019-01-30T23:43:09.871Z,4.20
2019-01-30T23:45:52.356Z,4.30
2019-01-30T23:48:33.223Z,4.40
2019-01-30T23:51:13.903Z,4.30
2019-01-30T23:53:54.707Z,4.10
2019-01-30T23:56:35.325Z,4.10
2019-01-30T23:59:16.092Z,4.10
